sensor_id;sensor_type;location;lat;lon;timestamp;pressure;altitude;pressure_sealevel;temperature;humidity
43707;BME280;61348;53.392;-6.248;2022-10-26T17:28:49;99774.88;;;12.23;91.38
43707;BME280;61348;53.392;-6.248;2022-10-26T17:31:17;99773.66;;;12.23;91.42
43707;BME280;61348;53.392;-6.248;2022-10-26T17:33:44;99798.66;;;12.23;91.21
43707;BME280;61348;53.392;-6.248;2022-10-26T17:36:17;99807.78;;;12.24;91.33
43707;BME280;61348;53.392;-6.248;2022-10-26T17:38:48;99808.97;;;12.23;91.32
43707;BME280;61348;53.392;-6.248;2022-10-26T17:41:18;99825.19;;;12.21;91.33
43707;BME280;61348;53.392;-6.248;2022-10-26T17:43:46;99830.31;;;12.19;91.35
43707;BME280;61348;53.392;-6.248;2022-10-26T17:46:15;99828.28;;;12.16;91.58
43707;BME280;61348;53.392;-6.248;2022-10-26T17:48:42;99833.44;;;12.14;91.36
43707;BME280;61348;53.392;-6.248;2022-10-26T17:51:15;99840.13;;;12.13;91.23
43707;BME280;61348;53.392;-6.248;2022-10-26T17:53:44;99859.63;;;12.16;91.13
43707;BME280;61348;53.392;-6.248;2022-10-26T17:56:25;99858.00;;;12.15;90.98
43707;BME280;61348;53.392;-6.248;2022-10-26T17:58:54;99864.69;;;12.11;90.93
43707;BME280;61348;53.392;-6.248;2022-10-26T18:01:22;99864.28;;;12.09;90.94
43707;BME280;61348;53.392;-6.248;2022-10-26T18:03:49;99867.41;;;12.07;91.08
43707;BME280;61348;53.392;-6.248;2022-10-26T18:06:17;99874.16;;;12.06;90.80
43707;BME280;61348;53.392;-6.248;2022-10-26T18:08:44;99883.66;;;12.05;90.73
43707;BME280;61348;53.392;-6.248;2022-10-26T18:11:16;99883.28;;;12.07;90.56
43707;BME280;61348;53.392;-6.248;2022-10-26T18:13:53;99876.88;;;12.03;90.47
43707;BME280;61348;53.392;-6.248;2022-10-26T18:16:21;99891.56;;;12.03;90.43
43707;BME280;61348;53.392;-6.248;2022-10-26T18:18:53;99881.63;;;12.02;90.21
43707;BME280;61348;53.392;-6.248;2022-10-26T18:21:27;99895.47;;;11.99;90.35
43707;BME280;61348;53.392;-6.248;2022-10-26T18:23:54;99899.00;;;11.99;90.17
43707;BME280;61348;53.392;-6.248;2022-10-26T18:26:23;99906.09;;;11.97;90.14
43707;BME280;61348;53.392;-6.248;2022-10-26T18:28:52;99908.03;;;11.93;89.94
43707;BME280;61348;53.392;-6.248;2022-10-26T18:31:21;99909.22;;;11.92;90.16
43707;BME280;61348;53.392;-6.248;2022-10-26T18:33:59;99931.41;;;11.92;89.96
43707;BME280;61348;53.392;-6.248;2022-10-26T18:36:27;99924.69;;;11.93;89.80
43707;BME280;61348;53.392;-6.248;2022-10-26T18:38:54;99938.63;;;11.96;89.48
43707;BME280;61348;53.392;-6.248;2022-10-26T18:41:22;99944.16;;;11.96;89.47
43707;BME280;61348;53.392;-6.248;2022-10-26T18:43:53;99943.72;;;11.94;89.48
43707;BME280;61348;53.392;-6.248;2022-10-26T18:46:22;99948.03;;;11.92;89.52
43707;BME280;61348;53.392;-6.248;2022-10-26T18:48:50;99946.47;;;11.91;89.43
43707;BME280;61348;53.392;-6.248;2022-10-26T18:51:19;99947.94;;;11.85;89.60
43707;BME280;61348;53.392;-6.248;2022-10-26T18:53:46;99946.78;;;11.86;89.67
43707;BME280;61348;53.392;-6.248;2022-10-26T18:56:19;99959.47;;;11.87;89.64
43707;BME280;61348;53.392;-6.248;2022-10-26T18:58:49;99969.47;;;11.91;89.78
43707;BME280;61348;53.392;-6.248;2022-10-26T19:01:17;99972.25;;;11.95;89.66
43707;BME280;61348;53.392;-6.248;2022-10-26T19:03:45;99977.47;;;11.96;89.79
43707;BME280;61348;53.392;-6.248;2022-10-26T19:06:13;99975.09;;;11.98;89.70
43707;BME280;61348;53.392;-6.248;2022-10-26T19:08:41;99980.66;;;11.98;89.38
43707;BME280;61348;53.392;-6.248;2022-10-26T19:11:11;99978.22;;;11.97;89.58
43707;BME280;61348;53.392;-6.248;2022-10-26T19:13:38;99986.56;;;11.97;89.71
43707;BME280;61348;53.392;-6.248;2022-10-26T19:16:07;99978.69;;;11.99;89.74
43707;BME280;61348;53.392;-6.248;2022-10-26T19:18:47;99977.13;;;12.01;89.51
43707;BME280;61348;53.392;-6.248;2022-10-26T19:21:19;99999.75;;;12.03;89.52
43707;BME280;61348;53.392;-6.248;2022-10-26T19:23:48;99992.66;;;12.06;89.32
43707;BME280;61348;53.392;-6.248;2022-10-26T19:26:18;100003.75;;;12.06;89.46
43707;BME280;61348;53.392;-6.248;2022-10-26T19:28:45;99999.38;;;12.05;89.21
43707;BME280;61348;53.392;-6.248;2022-10-26T19:31:13;99991.84;;;12.05;89.34
43707;BME280;61348;53.392;-6.248;2022-10-26T19:33:40;99998.94;;;12.03;89.33
43707;BME280;61348;53.392;-6.248;2022-10-26T19:36:10;100007.25;;;12.03;89.29
43707;BME280;61348;53.392;-6.248;2022-10-26T19:38:37;99987.00;;;11.99;89.53
43707;BME280;61348;53.392;-6.248;2022-10-26T19:41:06;99983.44;;;11.98;89.67
43707;BME280;61348;53.392;-6.248;2022-10-26T19:43:34;99994.88;;;11.97;89.70
43707;BME280;61348;53.392;-6.248;2022-10-26T19:46:07;100009.19;;;11.99;89.68
43707;BME280;61348;53.392;-6.248;2022-10-26T19:48:35;100007.25;;;12.03;89.74
43707;BME280;61348;53.392;-6.248;2022-10-26T19:51:03;100012.47;;;12.04;89.56
43707;BME280;61348;53.392;-6.248;2022-10-26T19:53:30;100016.00;;;12.05;89.53
43707;BME280;61348;53.392;-6.248;2022-10-26T19:55:58;100014.44;;;12.04;89.44
43707;BME280;61348;53.392;-6.248;2022-10-26T19:58:27;100014.44;;;12.04;89.32
43707;BME280;61348;53.392;-6.248;2022-10-26T20:00:55;100008.47;;;12.02;89.50
43707;BME280;61348;53.392;-6.248;2022-10-26T20:03:23;100020.28;;;11.99;89.40
43707;BME280;61348;53.392;-6.248;2022-10-26T20:05:49;100025.03;;;11.98;89.50
43707;BME280;61348;53.392;-6.248;2022-10-26T20:08:16;100016.72;;;11.98;89.49
43707;BME280;61348;53.392;-6.248;2022-10-26T20:10:45;100018.25;;;11.96;89.74
43707;BME280;61348;53.392;-6.248;2022-10-26T20:13:13;100020.97;;;11.92;89.74
43707;BME280;61348;53.392;-6.248;2022-10-26T20:15:40;100019.00;;;11.93;89.96
43707;BME280;61348;53.392;-6.248;2022-10-26T20:18:07;100015.50;;;11.96;89.87
43707;BME280;61348;53.392;-6.248;2022-10-26T20:20:36;100027.38;;;11.96;89.73
43707;BME280;61348;53.392;-6.248;2022-10-26T20:23:07;100025.38;;;11.97;90.02
43707;BME280;61348;53.392;-6.248;2022-10-26T20:25:35;100019.91;;;12.00;89.87
43707;BME280;61348;53.392;-6.248;2022-10-26T20:28:03;100016.34;;;12.00;89.62
43707;BME280;61348;53.392;-6.248;2022-10-26T20:30:32;100021.88;;;12.00;89.62
43707;BME280;61348;53.392;-6.248;2022-10-26T20:32:58;100028.16;;;11.97;89.65
43707;BME280;61348;53.392;-6.248;2022-10-26T20:35:25;100029.34;;;11.96;89.49
43707;BME280;61348;53.392;-6.248;2022-10-26T20:37:52;100038.47;;;11.96;89.49
43707;BME280;61348;53.392;-6.248;2022-10-26T20:40:20;100037.25;;;11.94;89.68
43707;BME280;61348;53.392;-6.248;2022-10-26T20:42:47;100045.13;;;11.92;89.70
43707;BME280;61348;53.392;-6.248;2022-10-26T20:45:25;100051.00;;;11.87;89.93
43707;BME280;61348;53.392;-6.248;2022-10-26T20:47:53;100042.63;;;11.83;90.10
43707;BME280;61348;53.392;-6.248;2022-10-26T20:50:21;100049.75;;;11.84;90.36
43707;BME280;61348;53.392;-6.248;2022-10-26T20:52:57;100052.91;;;11.83;90.22
43707;BME280;61348;53.392;-6.248;2022-10-26T20:58:12;100055.53;;;11.76;90.17
43707;BME280;61348;53.392;-6.248;2022-10-26T21:00:50;100062.28;;;11.75;90.31
43707;BME280;61348;53.392;-6.248;2022-10-26T21:03:19;100057.91;;;11.74;90.46
43707;BME280;61348;53.392;-6.248;2022-10-26T21:05:46;100052.34;;;11.74;90.58
43707;BME280;61348;53.392;-6.248;2022-10-26T21:08:13;100052.34;;;11.74;90.28
43707;BME280;61348;53.392;-6.248;2022-10-26T21:10:40;100052.41;;;11.77;90.41
43707;BME280;61348;53.392;-6.248;2022-10-26T21:13:06;100046.94;;;11.81;90.39
43707;BME280;61348;53.392;-6.248;2022-10-26T21:15:34;100047.78;;;11.85;90.08
43707;BME280;61348;53.392;-6.248;2022-10-26T21:18:01;100064.50;;;11.88;89.83
43707;BME280;61348;53.392;-6.248;2022-10-26T21:20:27;100050.25;;;11.90;89.57
43707;BME280;61348;53.392;-6.248;2022-10-26T21:22:54;100056.22;;;11.92;89.54
43707;BME280;61348;53.392;-6.248;2022-10-26T21:25:21;100052.72;;;11.95;89.35
43707;BME280;61348;53.392;-6.248;2022-10-26T21:27:47;100053.94;;;11.97;88.86
43707;BME280;61348;53.392;-6.248;2022-10-26T21:30:14;100059.13;;;11.99;88.85
43707;BME280;61348;53.392;-6.248;2022-10-26T21:32:41;100062.34;;;12.01;88.61
43707;BME280;61348;53.392;-6.248;2022-10-26T21:35:08;100054.34;;;11.99;88.67
43707;BME280;61348;53.392;-6.248;2022-10-26T21:37:34;100053.94;;;11.97;88.32
43707;BME280;61348;53.392;-6.248;2022-10-26T21:40:01;100060.28;;;11.98;88.28
43707;BME280;61348;53.392;-6.248;2022-10-26T21:42:28;100048.03;;;11.99;88.29
43707;BME280;61348;53.392;-6.248;2022-10-26T21:44:55;100051.66;;;12.03;88.19
43707;BME280;61348;53.392;-6.248;2022-10-26T21:47:22;100055.66;;;12.05;87.98
43707;BME280;61348;53.392;-6.248;2022-10-26T21:49:48;100056.09;;;12.07;88.03
43707;BME280;61348;53.392;-6.248;2022-10-26T21:52:22;100063.19;;;12.05;87.74
43707;BME280;61348;53.392;-6.248;2022-10-26T21:54:52;100053.28;;;12.04;87.75
43707;BME280;61348;53.392;-6.248;2022-10-26T21:57:18;100069.50;;;12.02;87.67
43707;BME280;61348;53.392;-6.248;2022-10-26T21:59:45;100065.47;;;11.99;87.67
43707;BME280;61348;53.392;-6.248;2022-10-26T22:02:13;100069.84;;;12.00;87.74
43707;BME280;61348;53.392;-6.248;2022-10-26T22:04:42;100078.56;;;11.99;87.78
43707;BME280;61348;53.392;-6.248;2022-10-26T22:07:09;100073.75;;;11.96;87.61
43707;BME280;61348;53.392;-6.248;2022-10-26T22:09:36;100086.88;;;11.99;87.44
43707;BME280;61348;53.392;-6.248;2022-10-26T22:12:22;100078.91;;;11.97;87.36
43707;BME280;61348;53.392;-6.248;2022-10-26T22:14:49;100098.28;;;11.94;87.61
43707;BME280;61348;53.392;-6.248;2022-10-26T22:17:16;100090.69;;;11.91;87.55
43707;BME280;61348;53.392;-6.248;2022-10-26T22:19:42;100089.09;;;11.90;87.37
43707;BME280;61348;53.392;-6.248;2022-10-26T22:22:09;100089.81;;;11.87;87.54
43707;BME280;61348;53.392;-6.248;2022-10-26T22:24:36;100088.16;;;11.82;87.61
43707;BME280;61348;53.392;-6.248;2022-10-26T22:27:02;100092.06;;;11.78;87.54
43707;BME280;61348;53.392;-6.248;2022-10-26T22:29:29;100086.81;;;11.73;87.96
43707;BME280;61348;53.392;-6.248;2022-10-26T22:31:56;100088.69;;;11.69;87.78
43707;BME280;61348;53.392;-6.248;2022-10-26T22:34:22;100090.13;;;11.62;87.83
43707;BME280;61348;53.392;-6.248;2022-10-26T22:36:49;100079.34;;;11.57;88.05
43707;BME280;61348;53.392;-6.248;2022-10-26T22:39:16;100082.00;;;11.50;88.54
43707;BME280;61348;53.392;-6.248;2022-10-26T22:41:43;100079.97;;;11.47;88.69
43707;BME280;61348;53.392;-6.248;2022-10-26T22:44:09;100079.09;;;11.43;88.90
43707;BME280;61348;53.392;-6.248;2022-10-26T22:46:36;100079.44;;;11.42;88.89
43707;BME280;61348;53.392;-6.248;2022-10-26T22:49:03;100084.50;;;11.36;89.26
43707;BME280;61348;53.392;-6.248;2022-10-26T22:51:32;100082.19;;;11.38;89.68
43707;BME280;61348;53.392;-6.248;2022-10-26T22:54:00;100073.88;;;11.38;89.80
43707;BME280;61348;53.392;-6.248;2022-10-26T22:56:28;100065.53;;;11.38;90.04
43707;BME280;61348;53.392;-6.248;2022-10-26T22:58:55;100068.75;;;11.40;90.11
43707;BME280;61348;53.392;-6.248;2022-10-26T23:01:26;100058.81;;;11.39;90.13
43707;BME280;61348;53.392;-6.248;2022-10-26T23:03:54;100054.09;;;11.40;90.58
43707;BME280;61348;53.392;-6.248;2022-10-26T23:06:22;100042.19;;;11.39;90.68
43707;BME280;61348;53.392;-6.248;2022-10-26T23:08:50;100050.06;;;11.37;90.93
43707;BME280;61348;53.392;-6.248;2022-10-26T23:11:19;100048.47;;;11.36;90.99
43707;BME280;61348;53.392;-6.248;2022-10-26T23:13:46;100051.63;;;11.35;91.11
43707;BME280;61348;53.392;-6.248;2022-10-26T23:16:15;100043.66;;;11.33;91.64
43707;BME280;61348;53.392;-6.248;2022-10-26T23:18:43;100045.25;;;11.34;91.86
43707;BME280;61348;53.392;-6.248;2022-10-26T23:21:11;100041.69;;;11.34;91.99
43707;BME280;61348;53.392;-6.248;2022-10-26T23:23:38;100041.25;;;11.32;92.08
43707;BME280;61348;53.392;-6.248;2022-10-26T23:26:11;100036.81;;;11.27;92.39
43707;BME280;61348;53.392;-6.248;2022-10-26T23:28:39;100024.44;;;11.21;92.77
43707;BME280;61348;53.392;-6.248;2022-10-26T23:31:07;100032.66;;;11.18;93.02
43707;BME280;61348;53.392;-6.248;2022-10-26T23:33:38;100023.06;;;11.12;93.38
43707;BME280;61348;53.392;-6.248;2022-10-26T23:36:04;100021.03;;;11.09;93.68
43707;BME280;61348;53.392;-6.248;2022-10-26T23:38:31;100023.38;;;11.07;94.21
43707;BME280;61348;53.392;-6.248;2022-10-26T23:40:58;100020.28;;;11.12;94.45
43707;BME280;61348;53.392;-6.248;2022-10-26T23:43:26;100014.00;;;11.15;94.57
43707;BME280;61348;53.392;-6.248;2022-10-26T23:45:54;100012.97;;;11.23;94.63
43707;BME280;61348;53.392;-6.248;2022-10-26T23:48:21;100017.94;;;11.33;94.69
43707;BME280;61348;53.392;-6.248;2022-10-26T23:50:48;100012.09;;;11.38;94.57
43707;BME280;61348;53.392;-6.248;2022-10-26T23:53:17;100015.78;;;11.45;94.55
43707;BME280;61348;53.392;-6.248;2022-10-26T23:55:45;100011.16;;;11.53;94.44
43707;BME280;61348;53.392;-6.248;2022-10-26T23:58:12;100017.63;;;11.60;94.23
